Classifiche di sempre
Migliori tempi personali validi di team tra tutti gli eventi e le stagioni. Ogni team compare una sola volta per divisione.
Cerca per nome e apri la pagina in cui è classificato questo record di divisione.
133,012 team in classifica
| Pos. | Pos. AG | Team | Nazionalità | Categoria età | TempoMiglior tempo | Distacco |
|---|---|---|---|---|---|---|
| 125476 | #8534 | Paweł Duda & Zuzanna JagiełaPOL · X 16-24 · AG #8534 | POL | X 16-24 | 1:50:59 | +61:46 |
| 125477 | #16800 | Balmore Ellis & Nathalie DavidGBR · X 40-44 · AG #16800 | GBR | X 40-44 | 1:50:59 | +61:46 |
| 125478 | #16801 | Roel Graven & Julie GravenNED · X 40-44 · AG #16801 | NED | X 40-44 | 1:50:59 | +61:46 |
| 125479 | #16802 | Pooja Marothi & Shiv Kumar Singh ChoudharyIND · X 40-44 · AG #16802 | IND | X 40-44 | 1:50:59 | +61:46 |
| 125480 | #16803 | Mario Montano & Alejandra CastroUSA · X 40-44 · AG #16803 | USA | X 40-44 | 1:50:59 | +61:46 |
| 125481 | #16804 | Sandrine JULLIEN-ROUQUIE & Sébastien ARJOFRA · X 40-44 · AG #16804 | FRA | X 40-44 | 1:50:59 | +61:46 |
| 125482 | #44213 | Silvia Van Teslaar Colado & Mario Galán GonzálezESP · X 30-34 · AG #44213 | ESP | X 30-34 | 1:50:59 | +61:46 |
| 125483 | -- | Wolfgang Fischer-Gissot & Laura ZieglerGER · X XU29 | GER | X XU29 | 1:50:59 | +61:46 |
| 125484 | #54 | Dawn Nye & Jason NyeGBR · X 50-59 · AG #54 | GBR | X 50-59 | 1:50:59 | +61:46 |
| 125485 | #16805 | Sean RUIZ & Yoko WASHINGTON-RUIZUSA · X 40-44 · AG #16805 | USA | X 40-44 | 1:50:59 | +61:46 |
| 125486 | #16806 | Adrian Barnes & Nicki DeganGBR · X 40-44 · AG #16806 | GBR | X 40-44 | 1:50:59 | +61:46 |
| 125487 | #2823 | Christopher Stevens & Kerry StevensUSA · X 50-54 · AG #2823 | USA | X 50-54 | 1:50:59 | +61:46 |
| 125488 | #16807 | Lorna Armstead & Tom ArmsteadGBR · X 40-44 · AG #16807 | GBR | X 40-44 | 1:50:59 | +61:46 |
| 125489 | #8535 | Alexia Romain & Morgan BourbonFRA · X 16-24 · AG #8535 | FRA | X 16-24 | 1:50:59 | +61:46 |
| 125490 | #19138 | Lidia Cardoso Da Silva & John-Michael SchneebergerSUI · X 25-29 · AG #19138 | SUI | X 25-29 | 1:50:59 | +61:46 |
| 125491 | #16808 | 姝 陈 & 冰田 陈CHN · X 40-44 · AG #16808 | CHN | X 40-44 | 1:50:59 | +61:46 |
| 125492 | #15425 | John Eric Abaja & Jhoana Therese AbajaPHI · X 35-39 · AG #15425 | PHI | X 35-39 | 1:50:59 | +61:46 |
| 125493 | #8536 | Carla Grenier & Rayan RochdiFRA · X 16-24 · AG #8536 | FRA | X 16-24 | 1:50:59 | +61:46 |
| 125494 | #15426 | Katharine Elliot & Stuart TurnbullGBR · X 35-39 · AG #15426 | GBR | X 35-39 | 1:50:59 | +61:46 |
| 125495 | #16809 | Jessica Dixon & David DixonUSA · X 40-44 · AG #16809 | USA | X 40-44 | 1:51:00 | +61:47 |
| 125496 | #15427 | Emma Seddon & Joe ProvonchaGBR · X 35-39 · AG #15427 | GBR | X 35-39 | 1:51:00 | +61:47 |
| 125497 | #44214 | Salina Mcneely & Cody McneelyUSA · X 30-34 · AG #44214 | USA | X 30-34 | 1:51:00 | +61:47 |
| 125498 | #15428 | Emily Rebolledo & Alberto RebolledoMEX · X 35-39 · AG #15428 | MEX | X 35-39 | 1:51:00 | +61:47 |
| 125499 | -- | Lucy Ballingall & Prathip DevanX XU29 | -- | X XU29 | 1:51:00 | +61:47 |
| 125500 | #806 | Pia Luyer & Michael HingerAUT · X 16-29 · AG #806 | AUT | X 16-29 | 1:51:00 | +61:47 |
Pagina 5,020 di 5,321